Tuesday, April 24, 2018, 4:18 AM EDT
Back to Local

KACK, Nantucket Memorial Airport

Location: Nantucket, MA, United States Lat: 41.25
Local Time: 4:18 AM EDT ( 8:18 GMT) Lon: -70.067
Time Zone: US/Eastern Elev: 49 ft

Show me the last for .
Show Coded

Time T Td Feel RH Dir Speed Gust Alt SLP Vis Weather Sky Remarks
2018-04-24 03:53 37 37 32 100 180° 6 - 30.45 30.44 10 CLR None
2018-04-24 03:21 38 38 34 100 180° 5 - 30.45 - 3 BR CLR None
2018-04-24 03:07 36 36 31 100 170° 6 - 30.44 - 1 BR CLR Variable visibility
2018-04-24 02:53 36 36 31 100 170° 6 - 30.45 30.44 9 CLR None
2018-04-24 01:53 37 37 32 100 200° 6 - 30.46 30.45 10 CLR 6-hr Min Temp (2am): 34.0°F
6-hr Max Temp (2am): 39.9°F
2018-04-24 00:53 37 37 32 100 210° 6 - 30.47 30.47 10 CLR 24-hr Min Temp (1am): 34.0°F
24-hr Max Temp (1am): 57.9°F
2018-04-23 23:53 38 38 36 100 190° 3 - 30.47 30.47 10 CLR None
2018-04-23 22:53 39 39 34 100 170° 7 - 30.48 30.47 10 CLR None
2018-04-23 21:53 39 39 35 100 200° 6 - 30.49 30.48 10 CLR None
2018-04-23 20:53 40 40 36 100 190° 6 - 30.49 30.49 10 CLR None
2018-04-23 19:53 39 38 36 95 170° 5 - 30.48 30.47 10 CLR 6-hr Min Temp (8pm): 37.9°F
6-hr Max Temp (8pm): 57.9°F
2018-04-23 18:53 44 40 41 85 190° 6 - 30.48 30.47 10 CLR None
2018-04-23 17:53 48 36 44 62 130° 8 - 30.46 30.46 10 CLR None
2018-04-23 16:53 53 31 - 42 130° 9 - 30.46 30.46 10 CLR None
2018-04-23 15:53 56 17 - 21 80° 9 - 30.46 30.46 10 CLR None
2018-04-23 14:53 58 18 - 20 50° 10 18 30.46 30.46 10 CLR None
2018-04-23 13:53 58 22 - 24 50° 10 - 30.48 30.48 10 CLR 6-hr Min Temp (2pm): 48.0°F
6-hr Max Temp (2pm): 57.9°F
2018-04-23 12:53 57 24 - 27 40° 9 - 30.48 30.47 10 CLR None
2018-04-23 11:53 57 28 - 32 10° 8 - 30.49 30.49 10 CLR None
2018-04-23 10:53 55 32 - 41 10° 9 - 30.50 30.50 10 CLR None
2018-04-23 09:53 53 33 - 46 360° 12 - 30.49 30.48 10 CLR None
2018-04-23 08:53 50 36 46 58 10° 12 - 30.48 30.47 10 CLR None
2018-04-23 07:53 48 38 42 67 360° 14 - 30.46 30.46 10 CLR 6-hr Min Temp (8am): 35.1°F
6-hr Max Temp (8am): 48.0°F
2018-04-23 06:53 44 40 39 85 350° 10 - 30.44 30.44 10 CLR None
2018-04-23 05:53 35 35 - 100 - Calm - 30.42 30.42 10 CLR None
2018-04-23 04:53 39 38 35 95 290° 6 - 30.40 30.40 10 CLR None

Support USWX by starting your Amazon purchase here.